Time;durP1;ratioP1;P1;durP2;ratioP2;P2;SDS_P1;SDS_P2;PMS_P1;PMS_P2;Temp;Humidity;BMP_temperature;BMP_pressure;BME280_temperature;BME280_humidity;BME280_pressure;Samples;Min_cycle;Max_cycle;Signal;HPM_P1;HPM_P2
2023/08/18 00:01:40;;;;;;;4.63;4.07;;;19.60;99.90;;;;;;5074523;28;20104;-87
2023/08/18 00:04:06;;;;;;;4.60;4.20;;;19.60;99.90;;;;;;5057523;28;20416;-88
2023/08/18 00:06:31;;;;;;;4.28;3.88;;;19.50;99.90;;;;;;5040061;28;20021;-88
2023/08/18 00:08:57;;;;;;;4.32;3.85;;;19.50;99.90;;;;;;5110565;28;20032;-87
2023/08/18 00:11:22;;;;;;;4.68;3.88;;;19.50;99.90;;;;;;5076521;28;20072;-88
2023/08/18 00:13:48;;;;;;;5.18;3.90;;;19.50;99.90;;;;;;5074693;28;20398;-86
2023/08/18 00:16:14;;;;;;;4.72;3.90;;;19.50;99.90;;;;;;5066390;28;20032;-87
2023/08/18 00:18:39;;;;;;;5.30;3.55;;;19.60;99.90;;;;;;5073903;28;20109;-87
2023/08/18 00:21:05;;;;;;;5.57;4.43;;;19.60;99.90;;;;;;5074395;28;20066;-87
2023/08/18 00:23:31;;;;;;;4.00;3.60;;;19.60;99.90;;;;;;5057643;28;20024;-87
2023/08/18 00:25:56;;;;;;;4.13;3.67;;;19.60;99.90;;;;;;5057906;28;20063;-88
2023/08/18 00:28:22;;;;;;;4.30;3.85;;;19.60;99.90;;;;;;5057857;28;20456;-86
2023/08/18 00:30:48;;;;;;;4.35;3.95;;;19.60;99.90;;;;;;5078349;28;20039;-86
2023/08/18 00:33:13;;;;;;;4.63;4.13;;;19.60;99.90;;;;;;5131219;28;20035;-86
2023/08/18 00:35:39;;;;;;;4.20;3.80;;;19.50;99.90;;;;;;5098024;28;20024;-87
2023/08/18 00:38:04;;;;;;;5.68;3.70;;;19.60;99.90;;;;;;5096682;28;20009;-86
2023/08/18 00:40:30;;;;;;;3.97;3.40;;;19.50;99.90;;;;;;5095760;28;20063;-88
2023/08/18 00:42:56;;;;;;;4.63;4.18;;;19.50;99.90;;;;;;5078236;28;20376;-87
2023/08/18 00:45:21;;;;;;;3.90;3.60;;;19.50;99.90;;;;;;5046844;28;20024;-87
2023/08/18 00:47:48;;;;;;;4.63;3.75;;;19.50;99.90;;;;;;5071607;28;20021;-87
2023/08/18 00:50:15;;;;;;;5.05;4.25;;;19.50;99.90;;;;;;5080344;28;20028;-87
2023/08/18 00:52:43;;;;;;;5.28;3.83;;;19.50;99.90;;;;;;5063106;28;20479;-87
2023/08/18 00:55:10;;;;;;;4.40;4.00;;;19.40;99.90;;;;;;5070283;28;20025;-86
2023/08/18 00:57:37;;;;;;;3.95;3.55;;;19.50;99.90;;;;;;5054116;28;20021;-87
2023/08/18 01:00:04;;;;;;;3.90;3.45;;;19.40;99.90;;;;;;5071542;28;20032;-86
2023/08/18 01:02:30;;;;;;;3.85;3.35;;;19.40;99.90;;;;;;5036581;28;20017;-86
2023/08/18 01:05:00;;;;;;;4.13;3.60;;;19.40;99.90;;;;;;5053305;28;20032;-87
2023/08/18 01:07:26;;;;;;;4.10;3.70;;;19.40;99.90;;;;;;5060884;28;20020;-86
2023/08/18 01:09:52;;;;;;;5.32;4.00;;;19.40;99.90;;;;;;5068636;28;20052;-86
2023/08/18 01:12:42;;;;;;;4.65;3.97;;;19.40;99.90;;;;;;5070393;28;20057;-85
2023/08/18 01:15:24;;;;;;;4.10;3.58;;;19.40;99.90;;;;;;5073513;28;20013;-87
2023/08/18 01:17:54;;;;;;;3.60;3.30;;;19.40;99.90;;;;;;5094287;28;20080;-86
2023/08/18 01:20:22;;;;;;;4.05;3.55;;;19.40;99.90;;;;;;5077828;28;20107;-86
2023/08/18 01:23:02;;;;;;;5.35;4.00;;;19.40;99.90;;;;;;5093245;28;20020;-87
2023/08/18 01:25:29;;;;;;;4.80;3.78;;;19.40;99.90;;;;;;5092911;28;20028;-86
2023/08/18 01:27:57;;;;;;;5.72;3.60;;;19.30;99.90;;;;;;5092979;28;20021;-87
2023/08/18 01:30:51;;;;;;;3.97;3.40;;;19.30;99.90;;;;;;5082268;28;20031;-88
2023/08/18 01:33:42;;;;;;;4.00;3.60;;;19.30;99.90;;;;;;5072481;28;20075;-87
2023/08/18 01:36:23;;;;;;;8.07;3.88;;;19.30;99.90;;;;;;5070920;28;20029;-87
2023/08/18 01:38:51;;;;;;;5.32;3.78;;;19.40;99.90;;;;;;5064587;28;20058;-87
2023/08/18 01:41:27;;;;;;;5.50;4.43;;;19.30;99.90;;;;;;5071222;28;20029;-88
2023/08/18 01:43:52;;;;;;;4.57;3.67;;;19.30;99.90;;;;;;5073854;28;20402;-86
2023/08/18 01:46:18;;;;;;;5.93;4.15;;;19.20;99.90;;;;;;5070258;28;20020;-87
2023/08/18 01:48:44;;;;;;;4.88;4.30;;;19.20;99.90;;;;;;5046572;28;20482;-87
2023/08/18 01:51:10;;;;;;;4.78;4.32;;;19.20;99.90;;;;;;5071791;28;20032;-87
2023/08/18 01:53:35;;;;;;;4.40;3.92;;;19.20;99.90;;;;;;5055449;28;20471;-88
2023/08/18 01:56:02;;;;;;;4.47;4.00;;;19.20;99.90;;;;;;5055739;28;20013;-87
2023/08/18 01:58:28;;;;;;;4.40;4.00;;;19.20;99.90;;;;;;5100256;28;20036;-86
2023/08/18 02:00:58;;;;;;;4.57;3.80;;;19.20;99.90;;;;;;5072452;28;20367;-86
2023/08/18 02:03:25;;;;;;;5.28;3.95;;;19.20;99.90;;;;;;5058539;28;20075;-87
2023/08/18 02:05:57;;;;;;;4.20;3.75;;;19.30;99.90;;;;;;5085614;28;20016;-86
2023/08/18 02:08:24;;;;;;;3.92;3.53;;;19.20;99.90;;;;;;5086687;28;20464;-86
2023/08/18 02:10:49;;;;;;;4.40;4.00;;;19.20;99.90;;;;;;5072342;28;20012;-88
2023/08/18 02:13:16;;;;;;;4.75;4.22;;;19.20;99.90;;;;;;5072920;28;20039;-87
2023/08/18 02:15:45;;;;;;;4.30;3.50;;;19.20;99.90;;;;;;5072868;28;20024;-88
2023/08/18 02:18:11;;;;;;;3.95;3.53;;;19.20;99.90;;;;;;5073985;28;20027;-87
2023/08/18 02:20:38;;;;;;;4.25;3.70;;;19.20;99.90;;;;;;5072003;28;20434;-88
2023/08/18 02:23:04;;;;;;;4.50;4.05;;;19.20;99.90;;;;;;5062022;28;20028;-87
2023/08/18 02:25:30;;;;;;;6.10;3.88;;;19.20;99.90;;;;;;5077076;28;20020;-86
2023/08/18 02:27:56;;;;;;;4.35;3.78;;;19.20;99.90;;;;;;5094746;28;20021;-86
2023/08/18 02:30:21;;;;;;;4.95;4.00;;;19.20;99.90;;;;;;5117150;28;20025;-87
2023/08/18 02:32:47;;;;;;;4.95;4.15;;;19.20;99.90;;;;;;5091318;28;20055;-87
2023/08/18 02:35:12;;;;;;;5.57;4.53;;;19.20;99.90;;;;;;5111944;28;20016;-87
2023/08/18 02:37:38;;;;;;;7.15;4.32;;;19.20;99.90;;;;;;5078085;28;20044;-88
2023/08/18 02:40:06;;;;;;;5.28;4.00;;;19.20;99.90;;;;;;5126492;27;20020;-88
2023/08/18 02:42:33;;;;;;;4.10;3.70;;;19.10;99.90;;;;;;5096566;28;20367;-87
2023/08/18 02:45:02;;;;;;;4.22;3.63;;;19.20;99.90;;;;;;5079459;28;20103;-87
2023/08/18 02:47:28;;;;;;;4.10;3.70;;;19.20;99.90;;;;;;5088426;28;20029;-88
2023/08/18 02:49:54;;;;;;;4.97;3.55;;;19.20;99.90;;;;;;5058079;28;20473;-88
2023/08/18 02:52:19;;;;;;;3.97;3.65;;;19.20;99.90;;;;;;5072829;28;20021;-88
2023/08/18 02:54:45;;;;;;;5.05;4.18;;;19.20;99.90;;;;;;5088994;28;20025;-87
2023/08/18 02:57:10;;;;;;;4.45;4.05;;;19.20;99.90;;;;;;5081014;28;20114;-87
2023/08/18 02:59:36;;;;;;;4.63;4.05;;;19.20;99.90;;;;;;5091146;28;20032;-87
2023/08/18 03:02:02;;;;;;;3.97;3.58;;;19.20;99.90;;;;;;5076426;28;20473;-87
2023/08/18 03:04:27;;;;;;;3.85;3.42;;;19.20;99.90;;;;;;5075817;28;20024;-87
2023/08/18 03:06:53;;;;;;;4.45;4.05;;;19.20;99.90;;;;;;5058937;28;20500;-87
2023/08/18 03:09:19;;;;;;;5.32;4.03;;;19.20;99.90;;;;;;5055132;28;20081;-87
2023/08/18 03:11:44;;;;;;;5.18;4.32;;;19.20;99.90;;;;;;5062205;28;20040;-88
2023/08/18 03:14:10;;;;;;;5.38;4.63;;;19.20;99.90;;;;;;5063792;28;20375;-88
2023/08/18 03:16:36;;;;;;;6.75;4.47;;;19.20;99.90;;;;;;5082377;28;20053;-87
2023/08/18 03:19:01;;;;;;;5.40;4.57;;;19.20;99.90;;;;;;5066699;28;20025;-87
2023/08/18 03:21:27;;;;;;;4.63;4.10;;;19.20;99.90;;;;;;5055626;28;20029;-87
2023/08/18 03:23:53;;;;;;;5.03;4.50;;;19.20;99.90;;;;;;5055151;28;20021;-87
2023/08/18 03:26:18;;;;;;;6.50;4.80;;;19.30;99.90;;;;;;5055660;28;20116;-87
2023/08/18 03:28:44;;;;;;;6.53;5.07;;;19.30;99.90;;;;;;5080363;28;20032;-87
2023/08/18 03:31:10;;;;;;;7.03;6.32;;;19.30;99.90;;;;;;5075290;28;20024;-88
2023/08/18 03:33:36;;;;;;;7.15;6.25;;;19.30;99.90;;;;;;5075655;28;20417;-87
2023/08/18 03:36:01;;;;;;;7.60;5.95;;;19.20;99.90;;;;;;5075718;28;20021;-87
2023/08/18 03:38:27;;;;;;;9.05;6.13;;;19.20;99.90;;;;;;5075078;28;20028;-88
2023/08/18 03:41:02;;;;;;;7.32;6.00;;;19.20;99.90;;;;;;5076001;28;20383;-88
2023/08/18 03:43:27;;;;;;;7.40;6.70;;;19.20;99.90;;;;;;5074820;28;20016;-87
2023/08/18 03:45:57;;;;;;;6.70;5.70;;;19.20;99.90;;;;;;5091699;28;20051;-88
2023/08/18 03:48:23;;;;;;;8.57;6.93;;;19.20;99.90;;;;;;5092677;28;20472;-88
2023/08/18 03:50:48;;;;;;;7.07;6.38;;;19.10;99.90;;;;;;5069249;28;20033;-87
2023/08/18 03:53:14;;;;;;;8.50;6.80;;;19.20;99.90;;;;;;5078659;28;20012;-88
2023/08/18 03:55:40;;;;;;;7.97;7.18;;;19.10;99.90;;;;;;5078429;28;20052;-88
2023/08/18 03:58:06;;;;;;;8.88;6.93;;;19.20;99.90;;;;;;5072585;28;20028;-88
2023/08/18 04:00:31;;;;;;;8.35;7.38;;;19.10;99.90;;;;;;5089727;28;20031;-87
2023/08/18 04:02:57;;;;;;;7.95;7.15;;;19.20;99.90;;;;;;5075060;28;20036;-87
2023/08/18 04:05:23;;;;;;;10.63;7.05;;;19.20;99.90;;;;;;5074869;28;20027;-88
2023/08/18 04:07:48;;;;;;;7.45;6.75;;;19.20;99.90;;;;;;5058706;28;20059;-88
2023/08/18 04:10:14;;;;;;;9.35;7.45;;;19.20;99.90;;;;;;5063562;28;20029;-87
2023/08/18 04:12:40;;;;;;;8.55;7.18;;;19.20;99.90;;;;;;5081728;28;20040;-87
2023/08/18 04:15:06;;;;;;;9.70;7.47;;;19.20;99.90;;;;;;5091855;28;20559;-87
2023/08/18 04:17:31;;;;;;;9.55;8.55;;;19.20;99.90;;;;;;5118823;28;20040;-87
2023/08/18 04:19:57;;;;;;;8.93;7.78;;;19.20;99.90;;;;;;5115173;28;20037;-87
2023/08/18 04:22:23;;;;;;;9.75;8.77;;;19.20;99.90;;;;;;5098026;28;20140;-86
2023/08/18 04:24:48;;;;;;;11.45;8.68;;;19.20;99.90;;;;;;5098091;28;20040;-86
2023/08/18 04:27:14;;;;;;;9.60;8.35;;;19.20;99.90;;;;;;5128472;28;20024;-88
2023/08/18 04:29:40;;;;;;;9.93;8.07;;;19.10;99.90;;;;;;5065632;28;20039;-87
2023/08/18 04:32:05;;;;;;;11.48;9.23;;;19.10;99.90;;;;;;5093121;28;20428;-88
2023/08/18 04:34:31;;;;;;;10.35;9.25;;;19.10;99.90;;;;;;5082254;28;20028;-87
2023/08/18 04:36:56;;;;;;;11.07;9.80;;;19.10;99.90;;;;;;5097192;28;20483;-88
2023/08/18 04:39:22;;;;;;;12.55;9.98;;;19.10;99.90;;;;;;5074570;28;20138;-87
2023/08/18 04:41:48;;;;;;;12.60;10.25;;;19.10;99.90;;;;;;5091296;28;20039;-87
2023/08/18 04:44:13;;;;;;;10.30;9.25;;;19.10;99.90;;;;;;5071825;28;20578;-87
2023/08/18 04:46:39;;;;;;;13.88;10.90;;;19.00;99.90;;;;;;5087931;28;20036;-86
2023/08/18 04:49:04;;;;;;;11.10;9.95;;;19.10;99.90;;;;;;5063409;28;20020;-86
2023/08/18 04:51:30;;;;;;;11.43;9.75;;;19.00;99.90;;;;;;5100208;28;20032;-85
2023/08/18 04:53:56;;;;;;;14.70;9.98;;;19.00;99.90;;;;;;5070395;28;20021;-86
2023/08/18 04:56:21;;;;;;;12.73;10.70;;;19.00;99.90;;;;;;5085983;28;20028;-86
2023/08/18 04:58:47;;;;;;;13.45;10.43;;;19.00;99.90;;;;;;5071922;28;20043;-85
2023/08/18 05:01:13;;;;;;;12.50;9.90;;;19.00;99.90;;;;;;5055897;28;20067;-86
2023/08/18 05:03:38;;;;;;;17.25;11.20;;;19.00;99.90;;;;;;5063021;28;20062;-87
2023/08/18 05:06:08;;;;;;;13.18;10.57;;;19.00;99.90;;;;;;5082520;28;20024;-86
2023/08/18 05:08:35;;;;;;;12.63;11.32;;;19.00;99.90;;;;;;5098091;28;20059;-86
2023/08/18 05:11:06;;;;;;;11.55;10.35;;;19.00;99.90;;;;;;5079237;28;20043;-85
2023/08/18 05:13:32;;;;;;;13.00;11.40;;;19.00;99.90;;;;;;5080892;28;20053;-86
2023/08/18 05:16:03;;;;;;;14.73;11.07;;;19.00;99.90;;;;;;5063319;28;20068;-86
2023/08/18 05:18:29;;;;;;;11.93;9.75;;;19.00;99.90;;;;;;5090755;28;20025;-87
2023/08/18 05:21:04;;;;;;;11.95;9.75;;;19.00;99.90;;;;;;5075886;28;20040;-84
2023/08/18 05:23:30;;;;;;;16.50;12.57;;;19.00;99.90;;;;;;5063628;28;20020;-86
2023/08/18 05:25:56;;;;;;;12.55;11.15;;;19.00;99.90;;;;;;5065365;28;20040;-85
2023/08/18 05:28:23;;;;;;;13.68;10.27;;;18.90;99.90;;;;;;5095079;28;20020;-86
2023/08/18 05:30:50;;;;;;;15.60;11.57;;;18.90;99.90;;;;;;5075094;28;20376;-85
2023/08/18 05:33:16;;;;;;;12.52;9.95;;;18.90;99.90;;;;;;5092799;28;20103;-85
2023/08/18 05:35:41;;;;;;;18.55;12.65;;;19.00;99.90;;;;;;5075903;28;20028;-85
2023/08/18 05:38:10;;;;;;;13.70;11.15;;;19.00;99.90;;;;;;5078216;28;20017;-85
2023/08/18 05:41:06;;;;;;;14.63;10.60;;;19.00;99.90;;;;;;5056380;28;20358;-85
2023/08/18 05:43:37;;;;;;;12.63;10.07;;;19.00;99.90;;;;;;5074169;28;20086;-85
2023/08/18 05:46:03;;;;;;;13.68;11.13;;;19.00;99.90;;;;;;5071968;28;20021;-85
2023/08/18 05:48:30;;;;;;;15.50;11.93;;;19.00;99.90;;;;;;5084895;28;20025;-87
2023/08/18 05:50:55;;;;;;;13.52;11.27;;;19.00;99.90;;;;;;5057048;28;20032;-86
2023/08/18 05:53:21;;;;;;;14.05;10.43;;;19.00;99.90;;;;;;5082803;28;20028;-87
2023/08/18 05:55:47;;;;;;;12.63;10.73;;;19.00;99.90;;;;;;5095701;28;20016;-86
2023/08/18 05:58:13;;;;;;;14.80;11.90;;;19.10;99.90;;;;;;5085340;28;20029;-86
2023/08/18 06:00:38;;;;;;;12.65;10.23;;;19.10;99.90;;;;;;5057888;28;20039;-87
2023/08/18 06:03:04;;;;;;;13.32;10.55;;;19.10;99.90;;;;;;5077246;28;20032;-85
2023/08/18 06:05:30;;;;;;;13.02;9.90;;;19.10;99.90;;;;;;5077383;28;20439;-87
2023/08/18 06:07:56;;;;;;;14.02;10.45;;;19.20;99.90;;;;;;5060814;28;20475;-86
2023/08/18 06:10:22;;;;;;;15.63;12.68;;;19.20;99.90;;;;;;5061263;28;20127;-86
2023/08/18 06:12:49;;;;;;;14.23;11.57;;;19.20;99.90;;;;;;5095061;28;20059;-86
2023/08/18 06:15:16;;;;;;;13.82;11.50;;;19.20;99.90;;;;;;5101350;28;20016;-86
2023/08/18 06:17:42;;;;;;;15.82;12.70;;;19.20;99.90;;;;;;5101010;28;20035;-86
2023/08/18 06:20:08;;;;;;;13.45;11.55;;;19.20;99.90;;;;;;5108589;28;20045;-87
2023/08/18 06:22:33;;;;;;;12.23;10.35;;;19.20;99.90;;;;;;5064708;28;20469;-86
2023/08/18 06:24:59;;;;;;;13.25;9.88;;;19.20;99.90;;;;;;5058186;28;20025;-86
2023/08/18 06:27:25;;;;;;;13.48;11.50;;;19.20;99.90;;;;;;5053637;28;20081;-86
2023/08/18 06:29:50;;;;;;;13.32;10.50;;;19.30;99.90;;;;;;5092340;28;20097;-86
2023/08/18 06:32:16;;;;;;;13.38;10.43;;;19.20;99.90;;;;;;5074974;28;20052;-87
2023/08/18 06:34:42;;;;;;;12.80;10.55;;;19.30;99.90;;;;;;5056309;28;20423;-87
2023/08/18 06:37:08;;;;;;;11.68;9.63;;;19.30;99.90;;;;;;5072482;28;20028;-86
2023/08/18 06:39:33;;;;;;;15.35;12.02;;;19.40;99.90;;;;;;5089953;28;20322;-86
2023/08/18 06:42:02;;;;;;;13.27;11.18;;;19.40;99.90;;;;;;5086062;28;20033;-86
2023/08/18 06:44:27;;;;;;;13.93;10.65;;;19.30;99.90;;;;;;5072512;28;20025;-87
2023/08/18 06:46:53;;;;;;;14.85;11.25;;;19.30;99.90;;;;;;5075825;28;20036;-86
2023/08/18 06:49:18;;;;;;;14.73;11.88;;;19.40;99.90;;;;;;5092758;28;20116;-87
2023/08/18 06:51:44;;;;;;;14.32;11.32;;;19.40;99.90;;;;;;5089642;28;20031;-86
2023/08/18 06:54:10;;;;;;;17.52;12.13;;;19.40;99.90;;;;;;5075782;28;20052;-86
2023/08/18 06:56:35;;;;;;;16.38;11.07;;;19.40;99.90;;;;;;5075722;28;20107;-86
2023/08/18 06:59:01;;;;;;;15.45;10.35;;;19.40;99.90;;;;;;5076831;28;20032;-86
2023/08/18 07:01:27;;;;;;;16.02;11.63;;;19.50;99.90;;;;;;5072849;28;20031;-86
2023/08/18 07:03:52;;;;;;;12.35;9.80;;;19.50;99.90;;;;;;5075973;28;20371;-85
2023/08/18 07:06:20;;;;;;;16.02;12.55;;;19.50;99.90;;;;;;5075438;28;20452;-86
2023/08/18 07:08:45;;;;;;;15.80;12.80;;;19.50;99.90;;;;;;5077216;28;20040;-87
2023/08/18 07:11:11;;;;;;;15.93;12.05;;;19.50;99.90;;;;;;5095042;28;20332;-86
2023/08/18 07:13:37;;;;;;;16.15;11.70;;;19.50;99.90;;;;;;5079602;28;20062;-86
2023/08/18 07:16:03;;;;;;;16.42;11.48;;;19.40;99.90;;;;;;5073096;28;20025;-87
2023/08/18 07:18:28;;;;;;;14.60;11.35;;;19.40;99.90;;;;;;5055388;28;20482;-87
2023/08/18 07:20:56;;;;;;;11.65;9.90;;;19.50;99.90;;;;;;5074923;28;20056;-85
2023/08/18 07:23:21;;;;;;;14.00;10.82;;;19.60;99.90;;;;;;5089406;28;20036;-87
2023/08/18 07:25:47;;;;;;;12.55;9.68;;;19.60;99.90;;;;;;5091468;28;20028;-87
2023/08/18 07:28:13;;;;;;;13.15;9.98;;;19.70;99.90;;;;;;5074894;28;20025;-85
2023/08/18 07:30:38;;;;;;;12.43;9.52;;;19.70;99.90;;;;;;5078833;28;20036;-86
2023/08/18 07:33:04;;;;;;;12.40;10.93;;;19.80;99.90;;;;;;5090864;28;20031;-87
2023/08/18 07:35:29;;;;;;;13.10;9.80;;;19.80;99.90;;;;;;5084016;28;20020;-86
2023/08/18 07:37:58;;;;;;;14.85;10.80;;;19.90;99.90;;;;;;5068099;28;20510;-86
2023/08/18 07:40:23;;;;;;;14.80;11.23;;;19.90;99.90;;;;;;5075191;28;20059;-87
2023/08/18 07:42:49;;;;;;;13.00;9.93;;;19.90;99.90;;;;;;5076372;28;20079;-86
2023/08/18 07:45:15;;;;;;;11.52;10.25;;;20.00;99.90;;;;;;5074688;28;20025;-87
2023/08/18 07:47:44;;;;;;;15.10;11.18;;;20.10;99.90;;;;;;5074130;28;20009;-87
2023/08/18 07:50:10;;;;;;;11.95;10.45;;;20.20;99.90;;;;;;5074559;28;20046;-87
2023/08/18 07:52:37;;;;;;;14.70;11.50;;;20.10;99.90;;;;;;5108588;28;20039;-86
2023/08/18 07:55:04;;;;;;;14.50;11.23;;;20.20;99.90;;;;;;5108839;28;20020;-86
2023/08/18 07:57:30;;;;;;;14.15;12.13;;;20.20;99.90;;;;;;5058082;28;20029;-87
2023/08/18 07:59:56;;;;;;;15.60;12.80;;;20.10;99.90;;;;;;5057489;28;20055;-86
2023/08/18 08:02:22;;;;;;;14.15;12.05;;;20.20;99.90;;;;;;5075000;28;20085;-87
2023/08/18 08:04:48;;;;;;;13.13;10.63;;;20.20;99.90;;;;;;5075647;28;20112;-87
2023/08/18 08:07:13;;;;;;;13.18;10.43;;;20.20;99.90;;;;;;5095075;28;20020;-86
2023/08/18 08:09:39;;;;;;;17.45;13.20;;;20.30;99.90;;;;;;5104888;28;20025;-86
2023/08/18 08:12:06;;;;;;;14.98;12.48;;;20.30;99.90;;;;;;5115739;28;20029;-86
2023/08/18 08:14:31;;;;;;;14.10;12.45;;;20.30;99.90;;;;;;5082201;28;20008;-86
2023/08/18 08:16:58;;;;;;;15.45;12.27;;;20.30;99.90;;;;;;5097758;28;20025;-86
2023/08/18 08:19:24;;;;;;;13.02;11.25;;;20.20;99.90;;;;;;5074677;28;20119;-87
2023/08/18 08:21:53;;;;;;;13.50;11.35;;;20.20;99.90;;;;;;5076554;28;20028;-86
2023/08/18 08:24:21;;;;;;;13.55;11.18;;;20.30;99.90;;;;;;5073696;28;20472;-85
2023/08/18 08:26:49;;;;;;;13.65;9.85;;;20.30;99.90;;;;;;5108474;28;20035;-85
2023/08/18 08:29:14;;;;;;;11.80;10.60;;;20.30;99.90;;;;;;5107185;28;20035;-85
2023/08/18 08:31:40;;;;;;;11.35;9.70;;;20.40;99.90;;;;;;5094006;28;20084;-83
2023/08/18 08:34:06;;;;;;;11.80;10.43;;;20.40;99.90;;;;;;5064131;28;20511;-84
2023/08/18 08:36:34;;;;;;;11.40;9.40;;;20.50;99.90;;;;;;5071276;28;20040;-85
2023/08/18 08:39:00;;;;;;;11.40;10.25;;;20.60;99.90;;;;;;5107117;28;20029;-85
2023/08/18 08:41:29;;;;;;;10.70;9.38;;;20.60;99.90;;;;;;5067604;28;20038;-86
2023/08/18 08:43:55;;;;;;;12.80;10.82;;;20.70;99.90;;;;;;5073832;28;20367;-87
2023/08/18 08:46:22;;;;;;;12.95;10.27;;;20.70;99.90;;;;;;5092941;28;20024;-86
2023/08/18 08:48:51;;;;;;;13.18;10.68;;;20.70;99.90;;;;;;5095775;28;20028;-89
2023/08/18 08:51:21;;;;;;;11.13;9.55;;;20.70;99.90;;;;;;5069050;28;20017;-88
2023/08/18 08:53:47;;;;;;;9.82;8.82;;;20.70;99.90;;;;;;5055648;28;20017;-89
2023/08/18 08:56:16;;;;;;;11.43;10.07;;;20.80;99.90;;;;;;5054050;28;20032;-88
2023/08/18 08:58:42;;;;;;;11.23;9.95;;;20.80;99.90;;;;;;5087149;28;20027;-88
2023/08/18 09:01:08;;;;;;;10.52;9.27;;;20.80;99.90;;;;;;5102614;28;20032;-88
2023/08/18 09:03:34;;;;;;;9.50;8.50;;;20.90;99.90;;;;;;5057077;28;20448;-89
2023/08/18 09:06:00;;;;;;;9.98;8.98;;;20.90;99.90;;;;;;5075060;28;20467;-89
2023/08/18 09:08:25;;;;;;;11.52;9.27;;;20.90;99.90;;;;;;5057069;28;20027;-88
2023/08/18 09:10:52;;;;;;;11.45;8.88;;;21.00;99.90;;;;;;5074528;28;20016;-88
2023/08/18 09:13:21;;;;;;;11.15;9.15;;;21.00;99.90;;;;;;5080988;28;20048;-88
2023/08/18 09:15:47;;;;;;;11.88;10.23;;;21.00;99.90;;;;;;5056912;28;20037;-88
2023/08/18 09:18:17;;;;;;;10.00;9.00;;;21.10;99.90;;;;;;5073676;28;20115;-90
2023/08/18 09:20:44;;;;;;;13.50;9.63;;;21.10;99.90;;;;;;5071839;28;20410;-86
2023/08/18 09:23:10;;;;;;;11.75;8.65;;;21.10;99.90;;;;;;5072562;28;20016;-86
2023/08/18 09:25:36;;;;;;;8.50;7.68;;;21.10;99.90;;;;;;5072154;28;20017;-86
2023/08/18 09:28:06;;;;;;;7.97;7.15;;;21.10;99.90;;;;;;5074048;28;20530;-86
2023/08/18 09:30:32;;;;;;;8.90;8.00;;;21.20;99.90;;;;;;5061357;28;20028;-86
2023/08/18 09:33:02;;;;;;;7.10;6.40;;;21.20;99.90;;;;;;5072470;28;20028;-86
2023/08/18 09:35:35;;;;;;;8.00;7.20;;;21.30;99.90;;;;;;5091096;28;20031;-86
2023/08/18 09:38:01;;;;;;;7.90;7.10;;;21.30;99.90;;;;;;5069562;28;20017;-86
2023/08/18 09:40:28;;;;;;;8.55;6.93;;;21.50;99.90;;;;;;5071316;28;20388;-85
2023/08/18 09:42:54;;;;;;;7.90;7.10;;;21.50;99.90;;;;;;5054315;28;20357;-86
2023/08/18 09:45:28;;;;;;;8.82;6.35;;;21.60;99.90;;;;;;5071508;28;20019;-86
2023/08/18 09:47:55;;;;;;;9.25;8.00;;;21.70;99.90;;;;;;5084563;28;20427;-86
2023/08/18 09:50:25;;;;;;;7.47;6.05;;;21.70;99.90;;;;;;5068633;28;20479;-86
2023/08/18 09:52:56;;;;;;;7.80;6.43;;;21.80;99.90;;;;;;5072562;28;20129;-87
2023/08/18 09:55:46;;;;;;;8.40;7.32;;;21.90;99.90;;;;;;5073491;28;20021;-86
2023/08/18 09:58:49;;;;;;;8.00;7.20;;;21.90;99.90;;;;;;5072588;28;20016;-86
2023/08/18 10:01:17;;;;;;;7.80;6.85;;;22.00;99.90;;;;;;5073429;28;20056;-87
2023/08/18 10:03:46;;;;;;;7.15;6.05;;;22.00;99.90;;;;;;5100801;28;20033;-86
2023/08/18 10:06:12;;;;;;;7.35;6.65;;;22.10;99.90;;;;;;5138803;28;20008;-85
2023/08/18 10:08:40;;;;;;;7.90;7.20;;;22.20;99.90;;;;;;5099717;28;20004;-86
2023/08/18 10:11:07;;;;;;;9.15;8.27;;;22.10;99.90;;;;;;5100287;28;20035;-85
2023/08/18 10:13:34;;;;;;;8.35;7.28;;;22.20;99.90;;;;;;5089326;28;20054;-86
2023/08/18 10:16:02;;;;;;;7.70;6.90;;;22.20;99.90;;;;;;5093284;28;20059;-86
2023/08/18 10:18:28;;;;;;;7.97;7.18;;;22.20;99.90;;;;;;5076420;28;20021;-84
2023/08/18 10:20:55;;;;;;;8.13;7.32;;;22.30;99.90;;;;;;5056371;28;20043;-87
2023/08/18 10:23:23;;;;;;;9.20;7.75;;;22.30;99.90;;;;;;5073167;28;20027;-86
2023/08/18 10:25:50;;;;;;;6.65;6.05;;;22.40;99.90;;;;;;5071997;28;20480;-87
2023/08/18 10:28:19;;;;;;;7.43;6.72;;;22.50;99.90;;;;;;5072829;28;20398;-87
2023/08/18 10:31:00;;;;;;;7.72;6.93;;;22.50;99.90;;;;;;5072131;28;20028;-87
2023/08/18 10:33:35;;;;;;;9.00;7.00;;;22.50;99.90;;;;;;5106356;28;20028;-86
2023/08/18 10:36:03;;;;;;;6.45;5.85;;;22.60;99.90;;;;;;5055781;28;20031;-87
2023/08/18 10:38:29;;;;;;;6.88;6.18;;;22.60;99.90;;;;;;5072713;28;20024;-87
2023/08/18 10:40:55;;;;;;;6.72;6.03;;;22.70;99.90;;;;;;5072082;28;20047;-87
2023/08/18 10:43:24;;;;;;;6.10;5.50;;;22.70;99.90;;;;;;5073159;28;20028;-86
2023/08/18 10:45:51;;;;;;;5.78;5.25;;;22.70;99.90;;;;;;5071369;28;20044;-86
2023/08/18 10:48:16;;;;;;;6.75;6.07;;;22.80;99.90;;;;;;5075235;28;20463;-86
2023/08/18 10:50:47;;;;;;;6.15;5.55;;;22.80;99.90;;;;;;5073965;28;20092;-86
2023/08/18 10:53:13;;;;;;;6.57;5.88;;;22.90;99.90;;;;;;5075841;28;20020;-85
2023/08/18 10:55:41;;;;;;;6.25;5.65;;;23.00;99.90;;;;;;5058841;28;20071;-86
2023/08/18 10:58:06;;;;;;;6.45;5.85;;;23.00;99.90;;;;;;5065959;28;20040;-85
2023/08/18 11:00:34;;;;;;;6.55;5.93;;;23.10;99.90;;;;;;5070301;28;20106;-83
2023/08/18 11:03:00;;;;;;;7.68;6.10;;;23.10;99.90;;;;;;5067639;28;20029;-86
2023/08/18 11:05:29;;;;;;;6.25;5.65;;;23.20;99.90;;;;;;5080458;28;20033;-86
2023/08/18 11:07:58;;;;;;;6.87;6.23;;;23.30;99.90;;;;;;5079967;28;20021;-85
2023/08/18 11:10:24;;;;;;;6.78;6.18;;;23.30;99.90;;;;;;5073238;28;20115;-86
2023/08/18 11:12:56;;;;;;;6.50;5.38;;;23.30;99.90;;;;;;5063261;28;20040;-86
2023/08/18 11:15:23;;;;;;;8.27;6.78;;;23.40;99.90;;;;;;5071525;28;20070;-85
2023/08/18 11:17:49;;;;;;;7.20;6.10;;;23.40;99.90;;;;;;5077496;28;20049;-86
2023/08/18 11:20:16;;;;;;;6.18;5.65;;;23.50;99.90;;;;;;5085048;28;20024;-86
2023/08/18 11:22:51;;;;;;;7.15;6.45;;;23.50;99.90;;;;;;5089462;28;20024;-85
2023/08/18 11:25:18;;;;;;;7.05;6.35;;;23.50;99.90;;;;;;5075478;28;20523;-86
2023/08/18 11:27:45;;;;;;;7.20;6.50;;;23.60;99.90;;;;;;5092520;28;20021;-86
2023/08/18 11:30:14;;;;;;;7.30;6.60;;;23.60;99.90;;;;;;5104419;27;20442;-86
2023/08/18 11:32:40;;;;;;;5.93;5.33;;;23.70;99.90;;;;;;5094965;28;20451;-86
2023/08/18 11:35:08;;;;;;;5.88;4.95;;;23.70;99.90;;;;;;5068052;28;20279;-86
2023/08/18 11:37:44;;;;;;;7.35;6.65;;;23.80;99.90;;;;;;5056451;28;20417;-86
2023/08/18 11:40:12;;;;;;;6.45;5.85;;;23.80;99.90;;;;;;5055479;28;20033;-87
2023/08/18 11:42:46;;;;;;;6.93;5.55;;;23.90;99.90;;;;;;5087977;28;20411;-86
2023/08/18 11:45:20;;;;;;;6.22;5.63;;;23.90;99.90;;;;;;5055109;28;20025;-86
2023/08/18 11:47:56;;;;;;;7.15;6.45;;;24.00;99.90;;;;;;5071480;28;20143;-86
2023/08/18 11:50:32;;;;;;;7.38;6.13;;;24.00;99.90;;;;;;5055681;28;20021;-86
2023/08/18 11:52:58;;;;;;;6.80;5.70;;;24.10;99.90;;;;;;5088527;28;20021;-87
2023/08/18 11:55:42;;;;;;;6.72;6.13;;;24.10;99.90;;;;;;5075248;28;20031;-87
2023/08/18 11:58:15;;;;;;;9.15;7.40;;;24.10;99.90;;;;;;5075859;28;20021;-86
2023/08/18 12:00:42;;;;;;;7.63;6.75;;;24.10;99.90;;;;;;5078551;28;20017;-86
2023/08/18 12:03:23;;;;;;;6.75;5.93;;;24.20;99.90;;;;;;5090526;28;20032;-86
2023/08/18 12:05:49;;;;;;;;;;;24.20;99.90;;;;;;5099185;28;20029;-85
2023/08/18 12:08:14;;;;;;;9.10;7.07;;;24.20;99.90;;;;;;5085121;28;19908;-85
2023/08/18 12:10:42;;;;;;;8.98;7.80;;;24.20;99.90;;;;;;5113295;28;20052;-86
2023/08/18 12:13:08;;;;;;;7.80;7.10;;;24.20;99.90;;;;;;5118747;28;20048;-86
2023/08/18 12:15:34;;;;;;;6.45;5.85;;;24.20;99.90;;;;;;5119288;28;20012;-86
2023/08/18 12:17:59;;;;;;;6.75;6.15;;;24.30;99.90;;;;;;5104607;28;20028;-86
2023/08/18 12:20:26;;;;;;;8.45;6.80;;;24.40;99.90;;;;;;5079143;28;20032;-86
2023/08/18 12:22:52;;;;;;;7.22;6.53;;;24.40;99.90;;;;;;5095116;28;20059;-85
2023/08/18 12:25:19;;;;;;;6.60;6.00;;;24.40;99.90;;;;;;5096227;28;20047;-86
2023/08/18 12:27:46;;;;;;;7.93;7.20;;;24.50;99.90;;;;;;5096058;28;20020;-86
2023/08/18 12:30:12;;;;;;;8.13;7.32;;;24.50;99.90;;;;;;5077891;28;20052;-86
2023/08/18 12:32:38;;;;;;;8.63;7.82;;;24.60;99.90;;;;;;5067525;28;20029;-85
2023/08/18 12:35:04;;;;;;;7.03;6.32;;;24.50;99.90;;;;;;5063708;28;20036;-86
2023/08/18 12:37:30;;;;;;;5.82;5.32;;;24.60;99.90;;;;;;5074048;28;20051;-85
2023/08/18 12:39:56;;;;;;;5.28;4.78;;;24.60;99.90;;;;;;5090139;28;20048;-87
2023/08/18 12:42:23;;;;;;;4.72;4.32;;;24.70;99.90;;;;;;5092845;28;20040;-87